sensor_id;sensor_type;location;lat;lon;timestamp;temperature;humidity
1594;DHT22;790;47.000;16.084;2023-06-24T00:01:33;17.50;99.90
1594;DHT22;790;47.000;16.084;2023-06-24T00:04:01;17.50;99.90
1594;DHT22;790;47.000;16.084;2023-06-24T00:06:28;17.60;99.90
1594;DHT22;790;47.000;16.084;2023-06-24T00:08:55;17.60;99.90
1594;DHT22;790;47.000;16.084;2023-06-24T00:11:27;17.60;99.90
1594;DHT22;790;47.000;16.084;2023-06-24T00:13:54;17.80;99.90
1594;DHT22;790;47.000;16.084;2023-06-24T00:16:22;17.80;99.90
1594;DHT22;790;47.000;16.084;2023-06-24T00:18:55;17.80;99.90
1594;DHT22;790;47.000;16.084;2023-06-24T00:21:24;17.90;99.90
1594;DHT22;790;47.000;16.084;2023-06-24T00:23:57;17.90;99.90
1594;DHT22;790;47.000;16.084;2023-06-24T00:26:24;18.00;99.90
1594;DHT22;790;47.000;16.084;2023-06-24T00:28:51;18.00;99.90
1594;DHT22;790;47.000;16.084;2023-06-24T00:31:19;18.10;99.90
1594;DHT22;790;47.000;16.084;2023-06-24T00:33:46;18.20;99.90
1594;DHT22;790;47.000;16.084;2023-06-24T00:36:16;18.20;99.90
1594;DHT22;790;47.000;16.084;2023-06-24T00:38:43;18.00;99.90
1594;DHT22;790;47.000;16.084;2023-06-24T00:41:11;18.00;99.90
1594;DHT22;790;47.000;16.084;2023-06-24T00:43:38;18.00;99.90
1594;DHT22;790;47.000;16.084;2023-06-24T00:46:06;18.00;99.90
1594;DHT22;790;47.000;16.084;2023-06-24T00:48:33;17.90;99.90
1594;DHT22;790;47.000;16.084;2023-06-24T00:51:01;17.90;99.90
1594;DHT22;790;47.000;16.084;2023-06-24T00:53:30;18.00;99.90
1594;DHT22;790;47.000;16.084;2023-06-24T00:55:58;17.90;99.90
1594;DHT22;790;47.000;16.084;2023-06-24T00:58:29;17.90;99.90
1594;DHT22;790;47.000;16.084;2023-06-24T01:00:57;17.90;99.90
1594;DHT22;790;47.000;16.084;2023-06-24T01:03:25;17.90;99.90
1594;DHT22;790;47.000;16.084;2023-06-24T01:05:53;17.80;99.90
1594;DHT22;790;47.000;16.084;2023-06-24T01:08:20;17.70;99.90
1594;DHT22;790;47.000;16.084;2023-06-24T01:10:50;17.70;99.90
1594;DHT22;790;47.000;16.084;2023-06-24T01:13:18;17.60;99.90
1594;DHT22;790;47.000;16.084;2023-06-24T01:15:45;17.60;99.90
1594;DHT22;790;47.000;16.084;2023-06-24T01:18:18;17.50;99.90
1594;DHT22;790;47.000;16.084;2023-06-24T01:20:51;17.40;99.90
1594;DHT22;790;47.000;16.084;2023-06-24T01:23:58;17.50;99.90
1594;DHT22;790;47.000;16.084;2023-06-24T01:29:56;17.60;99.90
1594;DHT22;790;47.000;16.084;2023-06-24T01:32:32;17.70;99.90
1594;DHT22;790;47.000;16.084;2023-06-24T01:35:05;17.70;99.90
1594;DHT22;790;47.000;16.084;2023-06-24T01:37:40;17.60;99.90
1594;DHT22;790;47.000;16.084;2023-06-24T01:40:12;17.60;99.90
1594;DHT22;790;47.000;16.084;2023-06-24T01:42:43;17.50;99.90
1594;DHT22;790;47.000;16.084;2023-06-24T01:45:15;17.50;99.90
1594;DHT22;790;47.000;16.084;2023-06-24T01:47:47;17.40;99.90
1594;DHT22;790;47.000;16.084;2023-06-24T01:50:16;17.50;99.90
1594;DHT22;790;47.000;16.084;2023-06-24T01:52:46;17.40;99.90
1594;DHT22;790;47.000;16.084;2023-06-24T01:55:19;17.40;99.90
1594;DHT22;790;47.000;16.084;2023-06-24T01:57:50;17.30;99.90
1594;DHT22;790;47.000;16.084;2023-06-24T02:00:17;17.40;99.90
1594;DHT22;790;47.000;16.084;2023-06-24T02:02:46;17.40;99.90
1594;DHT22;790;47.000;16.084;2023-06-24T02:05:15;17.40;99.90
1594;DHT22;790;47.000;16.084;2023-06-24T02:07:45;17.30;99.90
1594;DHT22;790;47.000;16.084;2023-06-24T02:10:14;17.30;99.90
1594;DHT22;790;47.000;16.084;2023-06-24T02:12:42;17.30;99.90
1594;DHT22;790;47.000;16.084;2023-06-24T02:15:10;17.30;99.90
1594;DHT22;790;47.000;16.084;2023-06-24T02:17:39;17.20;99.90
1594;DHT22;790;47.000;16.084;2023-06-24T02:20:09;17.20;99.90
1594;DHT22;790;47.000;16.084;2023-06-24T02:22:38;17.10;99.90
1594;DHT22;790;47.000;16.084;2023-06-24T02:25:07;17.00;99.90
1594;DHT22;790;47.000;16.084;2023-06-24T02:27:35;17.00;99.90
1594;DHT22;790;47.000;16.084;2023-06-24T02:30:03;17.00;99.90
1594;DHT22;790;47.000;16.084;2023-06-24T02:32:31;17.10;99.90
1594;DHT22;790;47.000;16.084;2023-06-24T02:34:58;17.10;99.90
1594;DHT22;790;47.000;16.084;2023-06-24T02:37:27;17.10;99.90
1594;DHT22;790;47.000;16.084;2023-06-24T02:39:55;17.10;99.90
1594;DHT22;790;47.000;16.084;2023-06-24T02:42:22;17.10;99.90
1594;DHT22;790;47.000;16.084;2023-06-24T02:44:50;17.20;99.90
1594;DHT22;790;47.000;16.084;2023-06-24T02:47:19;17.10;99.90
1594;DHT22;790;47.000;16.084;2023-06-24T02:49:48;17.10;99.90
1594;DHT22;790;47.000;16.084;2023-06-24T02:52:15;17.00;99.90
1594;DHT22;790;47.000;16.084;2023-06-24T02:54:45;16.90;99.90
1594;DHT22;790;47.000;16.084;2023-06-24T02:57:13;16.80;99.90
1594;DHT22;790;47.000;16.084;2023-06-24T02:59:41;16.70;99.90
1594;DHT22;790;47.000;16.084;2023-06-24T03:02:08;16.70;99.90
1594;DHT22;790;47.000;16.084;2023-06-24T03:04:36;16.60;99.90
1594;DHT22;790;47.000;16.084;2023-06-24T03:07:04;16.60;99.90
1594;DHT22;790;47.000;16.084;2023-06-24T03:09:34;16.60;99.90
1594;DHT22;790;47.000;16.084;2023-06-24T03:12:07;16.70;99.90
1594;DHT22;790;47.000;16.084;2023-06-24T03:14:35;16.70;99.90
1594;DHT22;790;47.000;16.084;2023-06-24T03:17:02;16.80;99.90
1594;DHT22;790;47.000;16.084;2023-06-24T03:19:35;16.80;99.90
1594;DHT22;790;47.000;16.084;2023-06-24T03:22:04;16.70;99.90
1594;DHT22;790;47.000;16.084;2023-06-24T03:24:38;16.70;99.90
1594;DHT22;790;47.000;16.084;2023-06-24T03:27:07;16.70;99.90
1594;DHT22;790;47.000;16.084;2023-06-24T03:29:35;16.80;99.90
1594;DHT22;790;47.000;16.084;2023-06-24T03:32:03;16.70;99.90
1594;DHT22;790;47.000;16.084;2023-06-24T03:34:31;16.70;99.90
1594;DHT22;790;47.000;16.084;2023-06-24T03:37:04;16.60;99.90
1594;DHT22;790;47.000;16.084;2023-06-24T03:39:31;16.60;99.90
1594;DHT22;790;47.000;16.084;2023-06-24T03:41:58;16.60;99.90
1594;DHT22;790;47.000;16.084;2023-06-24T03:44:26;16.70;99.90
1594;DHT22;790;47.000;16.084;2023-06-24T03:46:54;16.70;99.90
1594;DHT22;790;47.000;16.084;2023-06-24T03:49:21;16.80;99.90
1594;DHT22;790;47.000;16.084;2023-06-24T03:51:49;16.90;99.90
1594;DHT22;790;47.000;16.084;2023-06-24T03:54:16;17.00;99.90
1594;DHT22;790;47.000;16.084;2023-06-24T03:56:47;17.00;99.90
1594;DHT22;790;47.000;16.084;2023-06-24T03:59:14;17.10;99.90
1594;DHT22;790;47.000;16.084;2023-06-24T04:01:43;17.20;99.90
1594;DHT22;790;47.000;16.084;2023-06-24T04:04:10;17.30;99.90
1594;DHT22;790;47.000;16.084;2023-06-24T04:06:37;17.30;99.90
1594;DHT22;790;47.000;16.084;2023-06-24T04:09:05;17.30;99.90
1594;DHT22;790;47.000;16.084;2023-06-24T04:11:35;17.40;99.90
1594;DHT22;790;47.000;16.084;2023-06-24T04:14:03;17.40;99.90
1594;DHT22;790;47.000;16.084;2023-06-24T04:16:34;17.40;99.90
1594;DHT22;790;47.000;16.084;2023-06-24T04:19:03;17.40;99.90
1594;DHT22;790;47.000;16.084;2023-06-24T04:21:30;17.40;99.90
1594;DHT22;790;47.000;16.084;2023-06-24T04:23:57;17.40;99.90
1594;DHT22;790;47.000;16.084;2023-06-24T04:26:24;17.30;99.90
1594;DHT22;790;47.000;16.084;2023-06-24T04:28:52;17.30;99.90
1594;DHT22;790;47.000;16.084;2023-06-24T04:31:21;17.40;99.90
1594;DHT22;790;47.000;16.084;2023-06-24T04:33:48;17.40;99.90
1594;DHT22;790;47.000;16.084;2023-06-24T04:36:18;17.50;99.90
1594;DHT22;790;47.000;16.084;2023-06-24T04:38:45;17.50;99.90
1594;DHT22;790;47.000;16.084;2023-06-24T04:41:13;17.50;99.90
1594;DHT22;790;47.000;16.084;2023-06-24T04:43:40;17.60;99.90
1594;DHT22;790;47.000;16.084;2023-06-24T04:46:07;17.70;99.90
1594;DHT22;790;47.000;16.084;2023-06-24T04:48:37;17.80;99.90
1594;DHT22;790;47.000;16.084;2023-06-24T04:51:05;17.80;99.90
1594;DHT22;790;47.000;16.084;2023-06-24T04:53:33;17.90;99.90
1594;DHT22;790;47.000;16.084;2023-06-24T04:56:00;17.90;99.90
1594;DHT22;790;47.000;16.084;2023-06-24T04:58:29;17.90;99.90
1594;DHT22;790;47.000;16.084;2023-06-24T05:00:56;17.90;99.90
1594;DHT22;790;47.000;16.084;2023-06-24T05:03:24;18.00;99.90
1594;DHT22;790;47.000;16.084;2023-06-24T05:05:51;18.00;99.90
1594;DHT22;790;47.000;16.084;2023-06-24T05:08:19;18.20;99.90
1594;DHT22;790;47.000;16.084;2023-06-24T05:10:47;18.20;99.90
1594;DHT22;790;47.000;16.084;2023-06-24T05:13:14;18.20;99.90
1594;DHT22;790;47.000;16.084;2023-06-24T05:15:42;18.30;99.90
1594;DHT22;790;47.000;16.084;2023-06-24T05:18:09;18.30;99.90
1594;DHT22;790;47.000;16.084;2023-06-24T05:20:38;18.30;99.90
1594;DHT22;790;47.000;16.084;2023-06-24T05:23:05;18.30;99.90
1594;DHT22;790;47.000;16.084;2023-06-24T05:25:32;18.40;99.90
1594;DHT22;790;47.000;16.084;2023-06-24T05:28:00;18.50;99.90
1594;DHT22;790;47.000;16.084;2023-06-24T05:30:27;18.50;99.90
1594;DHT22;790;47.000;16.084;2023-06-24T05:32:54;18.60;99.90
1594;DHT22;790;47.000;16.084;2023-06-24T05:35:21;18.60;99.90
1594;DHT22;790;47.000;16.084;2023-06-24T05:37:50;18.70;99.90
1594;DHT22;790;47.000;16.084;2023-06-24T05:40:17;18.80;99.90
1594;DHT22;790;47.000;16.084;2023-06-24T05:42:45;18.80;99.90
1594;DHT22;790;47.000;16.084;2023-06-24T05:45:13;18.80;99.90
1594;DHT22;790;47.000;16.084;2023-06-24T05:47:41;18.70;99.90
1594;DHT22;790;47.000;16.084;2023-06-24T05:50:09;18.80;99.90
1594;DHT22;790;47.000;16.084;2023-06-24T05:52:37;18.80;99.90
1594;DHT22;790;47.000;16.084;2023-06-24T05:55:05;18.80;99.90
1594;DHT22;790;47.000;16.084;2023-06-24T05:57:32;18.90;99.90
1594;DHT22;790;47.000;16.084;2023-06-24T05:59:59;19.00;99.90
1594;DHT22;790;47.000;16.084;2023-06-24T06:02:27;19.00;99.90
1594;DHT22;790;47.000;16.084;2023-06-24T06:04:54;19.10;99.90
1594;DHT22;790;47.000;16.084;2023-06-24T06:07:21;19.20;99.90
1594;DHT22;790;47.000;16.084;2023-06-24T06:09:48;19.30;99.90
1594;DHT22;790;47.000;16.084;2023-06-24T06:12:16;19.40;99.90
1594;DHT22;790;47.000;16.084;2023-06-24T06:14:44;19.50;99.90
1594;DHT22;790;47.000;16.084;2023-06-24T06:17:13;19.50;99.90
1594;DHT22;790;47.000;16.084;2023-06-24T06:19:43;19.60;99.90
1594;DHT22;790;47.000;16.084;2023-06-24T06:22:12;19.60;99.90
1594;DHT22;790;47.000;16.084;2023-06-24T06:24:41;19.70;99.90
1594;DHT22;790;47.000;16.084;2023-06-24T06:27:09;19.80;99.90
1594;DHT22;790;47.000;16.084;2023-06-24T06:29:37;19.80;99.90
1594;DHT22;790;47.000;16.084;2023-06-24T06:32:04;19.90;99.90
1594;DHT22;790;47.000;16.084;2023-06-24T06:34:31;20.00;99.90
1594;DHT22;790;47.000;16.084;2023-06-24T06:37:01;20.00;99.90
1594;DHT22;790;47.000;16.084;2023-06-24T06:39:28;20.10;99.90
1594;DHT22;790;47.000;16.084;2023-06-24T06:41:55;20.20;99.90
1594;DHT22;790;47.000;16.084;2023-06-24T06:44:24;20.20;99.90
1594;DHT22;790;47.000;16.084;2023-06-24T06:46:53;20.20;99.90
1594;DHT22;790;47.000;16.084;2023-06-24T06:49:20;20.30;99.90
1594;DHT22;790;47.000;16.084;2023-06-24T06:51:48;20.40;99.90
1594;DHT22;790;47.000;16.084;2023-06-24T06:54:16;20.50;99.90
1594;DHT22;790;47.000;16.084;2023-06-24T06:56:44;20.60;99.90
1594;DHT22;790;47.000;16.084;2023-06-24T06:59:18;20.70;99.90
1594;DHT22;790;47.000;16.084;2023-06-24T07:01:50;20.80;99.90
1594;DHT22;790;47.000;16.084;2023-06-24T07:04:17;20.80;99.90
1594;DHT22;790;47.000;16.084;2023-06-24T07:06:46;20.80;99.90
1594;DHT22;790;47.000;16.084;2023-06-24T07:09:13;20.90;99.90
1594;DHT22;790;47.000;16.084;2023-06-24T07:11:42;20.90;99.90
1594;DHT22;790;47.000;16.084;2023-06-24T07:14:15;20.90;99.90
1594;DHT22;790;47.000;16.084;2023-06-24T07:16:43;21.00;99.90
1594;DHT22;790;47.000;16.084;2023-06-24T07:19:10;21.10;99.90
1594;DHT22;790;47.000;16.084;2023-06-24T07:21:37;21.30;99.90
1594;DHT22;790;47.000;16.084;2023-06-24T07:24:05;21.30;99.90
1594;DHT22;790;47.000;16.084;2023-06-24T07:26:33;21.50;99.90
1594;DHT22;790;47.000;16.084;2023-06-24T07:29:06;21.50;99.90
1594;DHT22;790;47.000;16.084;2023-06-24T07:31:33;21.50;99.90
1594;DHT22;790;47.000;16.084;2023-06-24T07:34:00;21.40;99.90
1594;DHT22;790;47.000;16.084;2023-06-24T07:36:28;21.40;99.90
1594;DHT22;790;47.000;16.084;2023-06-24T07:38:56;21.50;99.90
1594;DHT22;790;47.000;16.084;2023-06-24T07:41:25;21.60;99.90
1594;DHT22;790;47.000;16.084;2023-06-24T07:43:53;21.80;99.90
1594;DHT22;790;47.000;16.084;2023-06-24T07:46:24;21.80;99.90
1594;DHT22;790;47.000;16.084;2023-06-24T07:48:54;21.80;99.90
1594;DHT22;790;47.000;16.084;2023-06-24T07:51:23;21.90;99.90
1594;DHT22;790;47.000;16.084;2023-06-24T07:53:52;22.10;99.90
1594;DHT22;790;47.000;16.084;2023-06-24T07:56:20;22.10;99.90
1594;DHT22;790;47.000;16.084;2023-06-24T07:58:55;22.20;99.90
1594;DHT22;790;47.000;16.084;2023-06-24T08:01:42;22.40;99.90
1594;DHT22;790;47.000;16.084;2023-06-24T08:04:11;22.40;99.90
1594;DHT22;790;47.000;16.084;2023-06-24T08:06:40;22.40;99.90
1594;DHT22;790;47.000;16.084;2023-06-24T08:09:07;22.50;99.90
1594;DHT22;790;47.000;16.084;2023-06-24T08:11:34;22.50;99.90
1594;DHT22;790;47.000;16.084;2023-06-24T08:14:02;22.60;99.90
1594;DHT22;790;47.000;16.084;2023-06-24T08:16:37;22.70;99.90
1594;DHT22;790;47.000;16.084;2023-06-24T08:19:09;22.90;99.90
1594;DHT22;790;47.000;16.084;2023-06-24T08:21:37;23.10;99.90
1594;DHT22;790;47.000;16.084;2023-06-24T08:24:05;23.20;99.90
1594;DHT22;790;47.000;16.084;2023-06-24T08:26:33;23.20;99.90
1594;DHT22;790;47.000;16.084;2023-06-24T08:29:01;23.30;99.90
1594;DHT22;790;47.000;16.084;2023-06-24T08:31:32;23.10;99.90
1594;DHT22;790;47.000;16.084;2023-06-24T08:33:59;23.20;99.90
1594;DHT22;790;47.000;16.084;2023-06-24T08:36:30;23.20;99.90
1594;DHT22;790;47.000;16.084;2023-06-24T08:39:01;23.30;99.90
1594;DHT22;790;47.000;16.084;2023-06-24T08:41:28;23.20;99.90
1594;DHT22;790;47.000;16.084;2023-06-24T08:43:58;23.20;99.90
1594;DHT22;790;47.000;16.084;2023-06-24T08:46:32;23.10;99.90
1594;DHT22;790;47.000;16.084;2023-06-24T08:49:28;23.10;99.90
1594;DHT22;790;47.000;16.084;2023-06-24T08:52:15;23.00;99.90
1594;DHT22;790;47.000;16.084;2023-06-24T08:54:51;23.00;99.90
1594;DHT22;790;47.000;16.084;2023-06-24T08:57:26;23.00;99.90
1594;DHT22;790;47.000;16.084;2023-06-24T09:00:03;23.20;99.90
1594;DHT22;790;47.000;16.084;2023-06-24T09:02:43;23.30;99.90
1594;DHT22;790;47.000;16.084;2023-06-24T09:05:15;23.40;99.90
1594;DHT22;790;47.000;16.084;2023-06-24T09:07:58;23.50;99.90
1594;DHT22;790;47.000;16.084;2023-06-24T09:10:33;23.40;99.90
1594;DHT22;790;47.000;16.084;2023-06-24T09:14:04;23.30;99.90
1594;DHT22;790;47.000;16.084;2023-06-24T09:16:37;23.20;99.90
1594;DHT22;790;47.000;16.084;2023-06-24T09:19:06;23.40;99.90
1594;DHT22;790;47.000;16.084;2023-06-24T09:21:35;23.50;99.90
1594;DHT22;790;47.000;16.084;2023-06-24T09:24:28;23.60;99.90
1594;DHT22;790;47.000;16.084;2023-06-24T09:27:06;23.60;99.90
1594;DHT22;790;47.000;16.084;2023-06-24T09:29:47;23.90;99.90
1594;DHT22;790;47.000;16.084;2023-06-24T09:32:18;24.10;99.90
1594;DHT22;790;47.000;16.084;2023-06-24T09:34:47;24.00;99.90
1594;DHT22;790;47.000;16.084;2023-06-24T09:37:22;24.00;99.90
1594;DHT22;790;47.000;16.084;2023-06-24T09:40:04;24.10;99.90
1594;DHT22;790;47.000;16.084;2023-06-24T09:42:34;24.20;99.90
1594;DHT22;790;47.000;16.084;2023-06-24T09:45:25;24.10;99.90
1594;DHT22;790;47.000;16.084;2023-06-24T09:47:57;24.10;99.90
1594;DHT22;790;47.000;16.084;2023-06-24T09:50:38;24.10;99.90
1594;DHT22;790;47.000;16.084;2023-06-24T09:53:07;23.90;99.90
1594;DHT22;790;47.000;16.084;2023-06-24T09:55:51;23.80;99.90
1594;DHT22;790;47.000;16.084;2023-06-24T09:58:35;23.90;99.90
1594;DHT22;790;47.000;16.084;2023-06-24T10:01:17;23.90;99.90
1594;DHT22;790;47.000;16.084;2023-06-24T10:03:48;23.90;99.90
1594;DHT22;790;47.000;16.084;2023-06-24T10:06:16;23.80;99.90
1594;DHT22;790;47.000;16.084;2023-06-24T10:08:45;23.90;99.90
1594;DHT22;790;47.000;16.084;2023-06-24T10:11:19;23.90;99.90
1594;DHT22;790;47.000;16.084;2023-06-24T10:13:50;24.00;99.90
1594;DHT22;790;47.000;16.084;2023-06-24T10:16:27;24.00;99.90
1594;DHT22;790;47.000;16.084;2023-06-24T10:19:03;24.00;99.90
1594;DHT22;790;47.000;16.084;2023-06-24T10:21:50;24.10;99.90
1594;DHT22;790;47.000;16.084;2023-06-24T10:24:45;24.30;99.90
1594;DHT22;790;47.000;16.084;2023-06-24T10:27:39;24.40;99.90
1594;DHT22;790;47.000;16.084;2023-06-24T10:30:09;24.50;99.90
1594;DHT22;790;47.000;16.084;2023-06-24T10:32:57;24.20;99.90
1594;DHT22;790;47.000;16.084;2023-06-24T10:35:30;24.30;99.90
1594;DHT22;790;47.000;16.084;2023-06-24T10:38:22;24.30;99.90
1594;DHT22;790;47.000;16.084;2023-06-24T10:41:32;24.10;99.90
1594;DHT22;790;47.000;16.084;2023-06-24T10:44:14;23.90;99.90
1594;DHT22;790;47.000;16.084;2023-06-24T10:46:53;23.80;99.90
1594;DHT22;790;47.000;16.084;2023-06-24T10:49:21;23.70;99.90
1594;DHT22;790;47.000;16.084;2023-06-24T10:55:02;23.70;99.90
1594;DHT22;790;47.000;16.084;2023-06-24T10:57:32;23.60;99.90
1594;DHT22;790;47.000;16.084;2023-06-24T11:00:26;23.60;99.90
1594;DHT22;790;47.000;16.084;2023-06-24T11:03:07;23.60;99.90
1594;DHT22;790;47.000;16.084;2023-06-24T11:05:46;23.50;99.90
1594;DHT22;790;47.000;16.084;2023-06-24T11:08:21;23.60;99.90
1594;DHT22;790;47.000;16.084;2023-06-24T11:10:50;23.60;99.90
1594;DHT22;790;47.000;16.084;2023-06-24T11:13:20;23.60;99.90
1594;DHT22;790;47.000;16.084;2023-06-24T11:15:50;23.70;99.90
1594;DHT22;790;47.000;16.084;2023-06-24T11:18:20;23.90;99.90
1594;DHT22;790;47.000;16.084;2023-06-24T11:20:48;23.90;99.90
1594;DHT22;790;47.000;16.084;2023-06-24T11:23:21;23.90;99.90
1594;DHT22;790;47.000;16.084;2023-06-24T11:25:52;24.10;99.90
1594;DHT22;790;47.000;16.084;2023-06-24T11:28:22;24.10;99.90
1594;DHT22;790;47.000;16.084;2023-06-24T11:30:55;24.10;99.90
1594;DHT22;790;47.000;16.084;2023-06-24T11:33:28;24.20;99.90
1594;DHT22;790;47.000;16.084;2023-06-24T11:35:55;24.10;99.90
1594;DHT22;790;47.000;16.084;2023-06-24T11:38:23;24.10;99.90
1594;DHT22;790;47.000;16.084;2023-06-24T11:40:57;24.20;99.90
1594;DHT22;790;47.000;16.084;2023-06-24T11:43:31;24.20;99.90
1594;DHT22;790;47.000;16.084;2023-06-24T11:46:02;24.10;99.90
1594;DHT22;790;47.000;16.084;2023-06-24T11:48:29;24.20;99.90
1594;DHT22;790;47.000;16.084;2023-06-24T11:50:57;24.20;99.90
1594;DHT22;790;47.000;16.084;2023-06-24T11:53:29;24.20;99.90
1594;DHT22;790;47.000;16.084;2023-06-24T11:55:58;24.10;99.90
1594;DHT22;790;47.000;16.084;2023-06-24T11:58:25;24.00;99.90
1594;DHT22;790;47.000;16.084;2023-06-24T12:00:56;23.90;99.90
1594;DHT22;790;47.000;16.084;2023-06-24T12:03:25;23.90;99.90
1594;DHT22;790;47.000;16.084;2023-06-24T12:05:54;23.70;99.90
1594;DHT22;790;47.000;16.084;2023-06-24T12:08:21;23.60;99.90
1594;DHT22;790;47.000;16.084;2023-06-24T12:10:49;23.50;99.90
1594;DHT22;790;47.000;16.084;2023-06-24T12:13:16;23.50;99.90
1594;DHT22;790;47.000;16.084;2023-06-24T12:15:43;23.40;99.90
1594;DHT22;790;47.000;16.084;2023-06-24T12:18:12;23.30;99.90
1594;DHT22;790;47.000;16.084;2023-06-24T12:20:45;23.30;99.90
1594;DHT22;790;47.000;16.084;2023-06-24T12:23:12;23.10;99.90
1594;DHT22;790;47.000;16.084;2023-06-24T12:25:40;23.20;99.90
1594;DHT22;790;47.000;16.084;2023-06-24T12:28:08;23.10;99.90
1594;DHT22;790;47.000;16.084;2023-06-24T12:30:35;23.00;99.90
1594;DHT22;790;47.000;16.084;2023-06-24T12:33:17;22.90;99.90
1594;DHT22;790;47.000;16.084;2023-06-24T12:35:52;22.90;99.90
1594;DHT22;790;47.000;16.084;2023-06-24T12:38:29;22.80;99.90
1594;DHT22;790;47.000;16.084;2023-06-24T12:41:02;22.80;99.90
1594;DHT22;790;47.000;16.084;2023-06-24T12:43:37;22.90;99.90
1594;DHT22;790;47.000;16.084;2023-06-24T12:46:18;22.90;99.90
1594;DHT22;790;47.000;16.084;2023-06-24T12:49:04;22.90;99.90
1594;DHT22;790;47.000;16.084;2023-06-24T12:51:48;22.80;99.90
1594;DHT22;790;47.000;16.084;2023-06-24T12:54:21;22.90;99.90
1594;DHT22;790;47.000;16.084;2023-06-24T12:57:03;22.90;99.90
1594;DHT22;790;47.000;16.084;2023-06-24T12:59:45;23.00;99.90
1594;DHT22;790;47.000;16.084;2023-06-24T13:02:29;23.10;99.90
1594;DHT22;790;47.000;16.084;2023-06-24T13:05:02;23.30;99.90
1594;DHT22;790;47.000;16.084;2023-06-24T13:07:34;23.40;99.90
1594;DHT22;790;47.000;16.084;2023-06-24T13:10:06;23.70;99.90
1594;DHT22;790;47.000;16.084;2023-06-24T13:12:39;23.80;99.90
1594;DHT22;790;47.000;16.084;2023-06-24T13:15:22;23.90;99.90
1594;DHT22;790;47.000;16.084;2023-06-24T13:17:52;24.00;99.90
1594;DHT22;790;47.000;16.084;2023-06-24T13:20:33;24.20;99.90
1594;DHT22;790;47.000;16.084;2023-06-24T13:23:17;24.30;99.90
1594;DHT22;790;47.000;16.084;2023-06-24T13:25:54;24.40;99.90
1594;DHT22;790;47.000;16.084;2023-06-24T13:28:25;24.50;99.90
1594;DHT22;790;47.000;16.084;2023-06-24T13:30:57;24.60;99.90
1594;DHT22;790;47.000;16.084;2023-06-24T13:33:24;24.80;99.90
1594;DHT22;790;47.000;16.084;2023-06-24T13:35:53;24.90;99.90
1594;DHT22;790;47.000;16.084;2023-06-24T13:38:27;24.90;99.90
1594;DHT22;790;47.000;16.084;2023-06-24T13:41:09;24.80;99.90
1594;DHT22;790;47.000;16.084;2023-06-24T13:44:04;24.80;99.90
1594;DHT22;790;47.000;16.084;2023-06-24T13:46:38;24.90;99.90
1594;DHT22;790;47.000;16.084;2023-06-24T13:49:08;24.70;99.90
1594;DHT22;790;47.000;16.084;2023-06-24T13:51:37;24.50;99.90
1594;DHT22;790;47.000;16.084;2023-06-24T13:54:09;24.40;99.90
1594;DHT22;790;47.000;16.084;2023-06-24T13:56:37;24.40;99.90
1594;DHT22;790;47.000;16.084;2023-06-24T13:59:07;24.40;99.90
1594;DHT22;790;47.000;16.084;2023-06-24T14:01:36;24.30;99.90
1594;DHT22;790;47.000;16.084;2023-06-24T14:04:08;24.40;99.90
1594;DHT22;790;47.000;16.084;2023-06-24T14:06:37;24.60;99.90
1594;DHT22;790;47.000;16.084;2023-06-24T14:09:04;24.70;99.90
1594;DHT22;790;47.000;16.084;2023-06-24T14:11:50;24.90;99.90
1594;DHT22;790;47.000;16.084;2023-06-24T14:14:22;24.90;99.90
1594;DHT22;790;47.000;16.084;2023-06-24T14:16:53;24.60;99.90
1594;DHT22;790;47.000;16.084;2023-06-24T14:19:20;24.50;99.90
1594;DHT22;790;47.000;16.084;2023-06-24T14:22:28;24.50;99.90
1594;DHT22;790;47.000;16.084;2023-06-24T14:24:57;24.60;99.90
1594;DHT22;790;47.000;16.084;2023-06-24T14:27:43;24.70;99.90
1594;DHT22;790;47.000;16.084;2023-06-24T14:30:13;24.60;99.90
1594;DHT22;790;47.000;16.084;2023-06-24T14:32:41;24.50;99.90
1594;DHT22;790;47.000;16.084;2023-06-24T14:35:37;24.40;99.90
1594;DHT22;790;47.000;16.084;2023-06-24T14:38:12;24.40;99.90
1594;DHT22;790;47.000;16.084;2023-06-24T14:41:14;24.40;99.90
1594;DHT22;790;47.000;16.084;2023-06-24T14:44:04;24.30;99.90
1594;DHT22;790;47.000;16.084;2023-06-24T14:46:40;24.50;99.90
1594;DHT22;790;47.000;16.084;2023-06-24T14:49:09;24.30;99.90
1594;DHT22;790;47.000;16.084;2023-06-24T14:52:13;24.30;99.90
1594;DHT22;790;47.000;16.084;2023-06-24T14:54:56;24.20;99.90
1594;DHT22;790;47.000;16.084;2023-06-24T14:57:50;24.10;99.90
1594;DHT22;790;47.000;16.084;2023-06-24T15:00:25;24.00;99.90
1594;DHT22;790;47.000;16.084;2023-06-24T15:03:11;23.90;99.90
1594;DHT22;790;47.000;16.084;2023-06-24T15:05:43;23.90;99.90
1594;DHT22;790;47.000;16.084;2023-06-24T15:08:11;23.80;99.90
1594;DHT22;790;47.000;16.084;2023-06-24T15:10:56;23.70;99.90
1594;DHT22;790;47.000;16.084;2023-06-24T15:13:46;23.60;99.90
1594;DHT22;790;47.000;16.084;2023-06-24T15:16:20;23.40;99.90
1594;DHT22;790;47.000;16.084;2023-06-24T15:18:52;23.30;99.90
1594;DHT22;790;47.000;16.084;2023-06-24T15:21:33;23.30;99.90
1594;DHT22;790;47.000;16.084;2023-06-24T15:24:11;23.30;99.90
1594;DHT22;790;47.000;16.084;2023-06-24T15:26:46;23.30;99.90
1594;DHT22;790;47.000;16.084;2023-06-24T15:29:25;23.20;99.90
1594;DHT22;790;47.000;16.084;2023-06-24T15:32:24;23.20;99.90
1594;DHT22;790;47.000;16.084;2023-06-24T15:35:04;23.20;99.90
1594;DHT22;790;47.000;16.084;2023-06-24T15:37:45;23.20;99.90
1594;DHT22;790;47.000;16.084;2023-06-24T15:40:16;23.10;99.90
1594;DHT22;790;47.000;16.084;2023-06-24T15:42:52;23.10;99.90
1594;DHT22;790;47.000;16.084;2023-06-24T15:45:36;22.90;99.90
1594;DHT22;790;47.000;16.084;2023-06-24T15:48:35;22.90;99.90
1594;DHT22;790;47.000;16.084;2023-06-24T15:51:19;23.00;99.90
1594;DHT22;790;47.000;16.084;2023-06-24T15:53:53;22.90;99.90
1594;DHT22;790;47.000;16.084;2023-06-24T15:56:22;22.80;99.90
1594;DHT22;790;47.000;16.084;2023-06-24T15:58:51;22.70;99.90
1594;DHT22;790;47.000;16.084;2023-06-24T16:01:19;22.70;99.90
1594;DHT22;790;47.000;16.084;2023-06-24T16:03:54;22.70;99.90
1594;DHT22;790;47.000;16.084;2023-06-24T16:06:22;22.50;99.90
1594;DHT22;790;47.000;16.084;2023-06-24T16:09:03;22.50;99.90
1594;DHT22;790;47.000;16.084;2023-06-24T16:11:31;22.40;99.90
1594;DHT22;790;47.000;16.084;2023-06-24T16:14:04;22.40;99.90
1594;DHT22;790;47.000;16.084;2023-06-24T16:16:36;22.30;99.90
1594;DHT22;790;47.000;16.084;2023-06-24T16:19:34;22.30;99.90
1594;DHT22;790;47.000;16.084;2023-06-24T16:22:03;22.30;99.90
1594;DHT22;790;47.000;16.084;2023-06-24T16:24:43;22.40;99.90
1594;DHT22;790;47.000;16.084;2023-06-24T16:27:17;22.50;99.90
1594;DHT22;790;47.000;16.084;2023-06-24T16:29:48;22.50;99.90
1594;DHT22;790;47.000;16.084;2023-06-24T16:32:19;22.60;99.90
1594;DHT22;790;47.000;16.084;2023-06-24T16:34:52;22.60;99.90
1594;DHT22;790;47.000;16.084;2023-06-24T16:37:27;22.70;99.90
1594;DHT22;790;47.000;16.084;2023-06-24T16:39:55;22.60;99.90
1594;DHT22;790;47.000;16.084;2023-06-24T16:42:30;22.70;99.90